TAF and METAR

No METAR available for Inca Manco Capac Airport

TAF for Inca Manco Capac Airport

TAF SPJL 051900Z 0518/0618 15010KT CAVOK TX18/0519Z TNM05/0610Z BECMG 0523/0600 12004KT FM060400 VRB02KT CAVOK
Report created 5. aug 21:00

between 5. aug 20:00 - 6. aug 20:00

wind 10 knots from SSE (150°) Clear sky Max temperature 18° expected today at around 21 o'clock Min temperature -05° expected today at around 12 o'clock

becoming between 6. aug 01:00 - 6. aug 02:00

wind 4 knots from ESE (120°)

From 6. aug 06:00

wind 2 knots from various directions Clear sky